Time;durP1;ratioP1;P1;durP2;ratioP2;P2;SDS_P1;SDS_P2;PMS_P1;PMS_P2;Temp;Humidity;BMP_temperature;BMP_pressure;BME280_temperature;BME280_humidity;BME280_pressure;Samples;Min_cycle;Max_cycle;Signal;HPM_P1;HPM_P2
2022/11/05 00:10:28;;;;;;;3.87;1.93;;;9.50;99.90;;;12.75;56.82;97298.63;4901205;29;20055;-56
2022/11/05 00:18:32;;;;;;;3.30;2.17;;;9.50;99.90;;;12.78;56.97;97303.63;4889516;29;20347;-52
2022/11/05 00:21:00;;;;;;;3.00;2.10;;;9.60;99.90;;;12.75;57.06;97307.47;4889407;29;20401;-57
2022/11/05 00:26:15;;;;;;;3.03;2.00;;;9.60;99.90;;;12.73;57.28;97308.66;4916891;29;20254;-57
2022/11/05 00:28:43;;;;;;;3.50;2.07;;;9.50;99.90;;;12.76;57.19;97308.31;4926194;29;20255;-54
2022/11/05 00:31:13;;;;;;;3.00;2.27;;;9.60;99.90;;;12.76;57.25;97310.97;4926769;29;20388;-52
2022/11/05 00:33:42;;;;;;;5.37;2.50;;;9.60;99.90;;;12.75;57.22;97314.66;4925660;29;20354;-54
2022/11/05 00:36:10;;;;;;;3.20;2.57;;;9.50;99.90;;;12.75;57.48;97306.63;4924564;29;20373;-55
2022/11/05 00:38:38;;;;;;;6.17;2.73;;;9.60;99.90;;;12.68;57.36;97311.03;4926845;29;20052;-56
2022/11/05 00:41:07;;;;;;;3.67;2.43;;;9.50;99.90;;;12.63;57.89;97313.44;4927205;29;20058;-52
2022/11/05 00:46:22;;;;;;;4.70;3.13;;;9.40;99.90;;;12.56;58.27;97318.66;4926549;29;20040;-55
2022/11/05 00:51:36;;;;;;;6.47;4.67;;;9.30;99.90;;;12.44;58.59;97317.47;4925655;29;20052;-57
2022/11/05 00:54:04;;;;;;;5.73;3.17;;;9.30;99.90;;;12.52;58.44;97322.72;4926038;29;20050;-55
2022/11/05 00:56:33;;;;;;;5.63;3.73;;;9.30;99.90;;;12.53;58.45;97332.41;4926379;29;20377;-54
2022/11/05 00:59:01;;;;;;;5.33;3.90;;;9.40;99.90;;;12.53;58.92;97341.22;4925373;29;20254;-53
2022/11/05 01:01:29;;;;;;;5.13;4.07;;;9.50;99.90;;;12.70;58.30;97333.09;4926564;29;20078;-57
2022/11/05 01:03:57;;;;;;;4.60;3.30;;;9.60;99.90;;;12.65;58.16;97341.63;4925958;29;20051;-57
2022/11/05 01:06:25;;;;;;;4.73;2.97;;;9.60;99.90;;;12.60;58.40;97344.84;4925880;29;20056;-57
2022/11/05 01:08:55;;;;;;;4.70;3.17;;;9.50;99.90;;;12.68;58.33;97346.63;4926205;29;20054;-54
2022/11/05 01:11:32;;;;;;;4.57;2.87;;;9.60;99.90;;;12.70;58.16;97341.09;4926418;29;20070;-56
2022/11/05 01:14:10;;;;;;;4.17;2.40;;;9.60;99.90;;;12.76;58.21;97351.03;4924471;29;20048;-57
2022/11/05 01:16:39;;;;;;;3.60;2.60;;;9.60;99.90;;;12.75;58.03;97349.38;4923948;29;20058;-55
2022/11/05 01:19:09;;;;;;;4.17;2.97;;;9.60;99.90;;;12.71;58.51;97353.41;4924969;29;20258;-53
2022/11/05 01:21:38;;;;;;;5.87;2.80;;;9.50;99.90;;;12.69;58.54;97350.94;4909337;29;20071;-56
2022/11/05 01:24:06;;;;;;;4.50;3.07;;;9.50;99.90;;;12.66;58.63;97356.66;4925430;29;20060;-51
2022/11/05 01:26:34;;;;;;;5.20;3.10;;;9.50;99.90;;;12.70;58.58;97352.59;4909591;29;20048;-55
2022/11/05 01:29:03;;;;;;;3.73;2.77;;;9.50;99.90;;;12.74;58.50;97359.22;4906289;29;20363;-55
2022/11/05 01:31:31;;;;;;;5.87;3.37;;;9.50;99.90;;;12.65;58.74;97364.84;4906966;29;20056;-53
2022/11/05 01:34:00;;;;;;;4.40;3.30;;;9.50;99.90;;;12.61;58.78;97367.03;4906608;29;20052;-55
2022/11/05 01:36:29;;;;;;;5.53;3.03;;;9.50;99.90;;;12.60;58.68;97368.88;4907093;29;20059;-53
2022/11/05 01:38:57;;;;;;;5.33;3.40;;;9.40;99.90;;;12.67;58.72;97368.16;4906849;29;20335;-57
2022/11/05 01:41:25;;;;;;;3.73;2.77;;;9.50;99.90;;;12.51;59.13;97371.81;4906894;29;20055;-57
2022/11/05 01:43:58;;;;;;;4.47;2.87;;;9.40;99.90;;;12.59;59.12;97375.22;4906420;29;20056;-54
2022/11/05 01:46:44;;;;;;;3.58;2.92;;;9.40;99.90;;;12.30;59.81;97370.63;4907029;29;20053;-56
2022/11/05 01:49:25;;;;;;;6.10;2.97;;;9.30;99.90;;;12.42;59.68;97379.03;4890785;29;20258;-57
2022/11/05 01:51:54;;;;;;;4.27;2.70;;;9.30;99.90;;;12.40;59.57;97370.38;4892051;29;20055;-55
2022/11/05 01:54:28;;;;;;;3.87;2.83;;;9.30;99.90;;;12.53;59.19;97380.47;4889992;29;20045;-56
2022/11/05 01:57:02;;;;;;;6.22;3.80;;;9.40;99.90;;;12.60;59.18;97378.72;4890818;29;20059;-56
2022/11/05 01:59:54;;;;;;;5.70;3.60;;;9.40;99.90;;;12.56;59.14;97375.59;4906670;29;20052;-52
2022/11/05 02:02:24;;;;;;;5.80;3.40;;;9.40;99.90;;;12.58;59.02;97376.25;4906950;29;20056;-54
2022/11/05 02:04:58;;;;;;;4.60;3.37;;;9.40;99.90;;;12.65;59.30;97376.34;4889660;29;20363;-55
2022/11/05 02:07:28;;;;;;;5.38;3.80;;;9.40;99.90;;;12.70;58.93;97381.97;4890699;29;20360;-56
2022/11/05 02:10:13;;;;;;;4.63;3.27;;;9.50;99.90;;;12.74;58.97;97388.63;4906509;29;20052;-56
2022/11/05 02:12:45;;;;;;;8.13;4.63;;;9.60;99.90;;;12.82;58.95;97381.53;4906834;29;20049;-57
2022/11/05 02:15:39;;;;;;;6.60;4.40;;;9.60;99.90;;;12.80;58.63;97395.91;4906102;29;20048;-57
2022/11/05 02:18:18;;;;;;;5.32;3.55;;;9.60;99.90;;;12.74;59.11;97395.81;4906870;29;20052;-57
2022/11/05 02:21:30;;;;;;;5.07;3.87;;;9.50;99.90;;;12.68;59.04;97394.69;4906587;29;20061;-56
2022/11/05 02:24:25;;;;;;;6.03;4.20;;;9.50;99.90;;;12.63;59.24;97398.91;4906464;29;20056;-54
2022/11/05 02:27:28;;;;;;;6.10;4.10;;;9.40;99.90;;;12.53;59.98;97397.31;4925238;29;20350;-57
2022/11/05 02:30:08;;;;;;;5.13;3.73;;;9.40;99.90;;;12.70;59.20;97402.53;4925297;29;20044;-57
2022/11/05 02:33:23;;;;;;;9.27;4.23;;;9.50;99.90;;;12.72;59.22;97400.50;4925547;29;20048;-55
2022/11/05 02:36:34;;;;;;;6.80;4.10;;;9.50;99.90;;;12.66;59.31;97402.06;4924986;29;20056;-56
2022/11/05 02:39:33;;;;;;;6.67;4.20;;;9.50;99.90;;;12.67;59.27;97397.53;4925398;29;20376;-56
2022/11/05 02:42:32;;;;;;;7.20;4.70;;;9.50;99.90;;;12.46;60.11;97400.88;4924916;29;20060;-55
2022/11/05 02:45:24;;;;;;;5.07;4.30;;;9.50;99.90;;;12.46;60.12;97395.53;4924041;29;20054;-54
2022/11/05 02:48:29;;;;;;;5.93;3.70;;;9.40;99.90;;;12.56;59.61;97390.75;4924360;29;20067;-53
2022/11/05 02:51:32;;;;;;;6.10;3.37;;;9.40;99.90;;;12.24;61.01;97398.03;4924793;29;20052;-55
2022/11/05 02:54:18;;;;;;;4.83;3.80;;;9.40;99.90;;;12.33;60.57;97398.78;4909068;29;20055;-51
2022/11/05 02:56:50;;;;;;;6.07;3.80;;;9.30;99.90;;;12.39;60.46;97393.59;4925173;29;20247;-50
2022/11/05 02:59:18;;;;;;;5.60;4.40;;;9.30;99.90;;;12.49;60.39;97392.50;4925380;29;20271;-54
2022/11/05 03:01:47;;;;;;;7.50;5.00;;;9.40;99.90;;;12.40;60.67;97395.22;4928263;29;20052;-54
2022/11/05 03:04:18;;;;;;;7.20;4.70;;;9.30;99.90;;;12.49;60.44;97396.00;4928298;29;20058;-52
2022/11/05 03:07:17;;;;;;;8.20;5.13;;;9.40;99.90;;;12.47;60.52;97403.38;4928375;29;20048;-53
2022/11/05 03:10:26;;;;;;;6.10;4.80;;;9.40;99.90;;;12.48;60.52;97404.19;4928642;29;20052;-50
2022/11/05 03:13:27;;;;;;;5.43;4.43;;;9.40;99.90;;;12.49;60.47;97409.38;4928339;29;20052;-49
2022/11/05 03:15:59;;;;;;;8.13;6.00;;;9.40;99.90;;;12.54;60.10;97409.66;4928222;29;20054;-52
2022/11/05 03:18:45;;;;;;;9.10;5.20;;;9.40;99.90;;;12.55;60.44;97418.50;4927134;29;20060;-52
2022/11/05 03:21:26;;;;;;;7.63;6.10;;;9.40;99.90;;;12.59;60.40;97412.59;4927302;29;20367;-55
2022/11/05 03:24:18;;;;;;;7.43;5.43;;;9.40;99.90;;;12.62;60.43;97424.78;4926937;29;20052;-53
2022/11/05 03:26:55;;;;;;;8.17;5.60;;;9.40;99.90;;;12.62;60.75;97419.44;4909904;29;20056;-50
2022/11/05 03:29:30;;;;;;;7.80;5.77;;;9.50;99.90;;;12.70;60.32;97421.22;4892502;29;20055;-53
2022/11/05 03:32:01;;;;;;;9.37;6.53;;;9.50;99.90;;;12.59;60.63;97425.13;4893077;29;20055;-53
2022/11/05 03:34:36;;;;;;;7.90;5.70;;;9.50;99.90;;;12.58;60.84;97429.66;4877242;29;20056;-52
2022/11/05 03:37:07;;;;;;;8.20;6.43;;;9.40;99.90;;;12.67;60.39;97426.91;4892793;29;20054;-53
2022/11/05 03:39:44;;;;;;;9.77;6.70;;;9.50;99.90;;;12.63;60.76;97439.78;4892499;29;20057;-50
2022/11/05 03:42:17;;;;;;;9.03;6.10;;;9.50;99.90;;;12.62;60.78;97427.47;4909014;29;20045;-50
2022/11/05 03:44:54;;;;;;;8.23;7.00;;;9.50;99.90;;;12.65;60.61;97444.97;4892331;29;20049;-51
2022/11/05 03:47:31;;;;;;;9.70;6.07;;;9.40;99.90;;;12.55;60.87;97446.03;4908806;29;20048;-53
2022/11/05 03:50:14;;;;;;;10.43;5.97;;;9.40;99.90;;;12.54;61.18;97446.19;4892848;29;20351;-54
2022/11/05 03:52:58;;;;;;;10.97;7.47;;;9.40;99.90;;;12.54;61.02;97448.88;4908623;29;20048;-51
2022/11/05 03:55:38;;;;;;;9.18;6.53;;;9.40;99.90;;;12.64;60.98;97453.97;4892860;29;20056;-53
2022/11/05 03:58:08;;;;;;;8.27;6.10;;;9.40;99.90;;;12.51;61.33;97455.41;4892698;29;20373;-51
2022/11/05 04:00:37;;;;;;;8.03;5.67;;;9.30;99.90;;;12.54;61.15;97456.88;4892393;29;20052;-51
2022/11/05 04:03:06;;;;;;;9.17;6.30;;;9.30;99.90;;;12.55;61.47;97466.56;4892126;29;20052;-53
2022/11/05 04:05:34;;;;;;;10.43;7.13;;;9.40;99.90;;;12.54;61.13;97475.56;4908133;29;20062;-50
2022/11/05 04:13:35;;;;;;;9.27;6.47;;;9.30;99.90;;;12.33;62.24;97476.19;4908132;29;20240;-50
2022/11/05 04:18:50;;;;;;;9.67;6.83;;;9.30;99.90;;;12.30;61.87;97485.41;4907956;29;20070;-54
2022/11/05 04:24:08;;;;;;;8.43;6.23;;;9.20;99.90;;;12.35;62.32;97485.72;4907803;29;20056;-52
2022/11/05 04:26:38;;;;;;;9.87;7.00;;;9.20;99.90;;;12.32;61.90;97486.06;4924938;29;20056;-49
2022/11/05 04:31:54;;;;;;;11.47;7.80;;;9.30;99.90;;;12.27;62.09;97496.44;4926267;29;20059;-53
2022/11/05 04:34:22;;;;;;;10.07;7.37;;;9.20;99.90;;;11.80;63.55;97500.78;4926468;29;20048;-53
2022/11/05 04:36:52;;;;;;;12.33;8.57;;;9.10;99.90;;;12.05;63.06;97499.88;4927031;29;20044;-50
2022/11/05 04:39:20;;;;;;;11.33;8.00;;;9.10;99.90;;;12.00;62.97;97508.44;4926784;29;20056;-52
2022/11/05 04:41:48;;;;;;;13.27;8.00;;;9.00;99.90;;;12.09;62.79;97506.53;4926813;29;20054;-51
2022/11/05 04:44:16;;;;;;;11.70;8.30;;;9.00;99.90;;;12.14;62.53;97504.19;4926243;29;20074;-52
2022/11/05 04:46:44;;;;;;;14.97;9.27;;;9.10;99.90;;;12.27;62.31;97500.94;4925886;29;20052;-54
2022/11/05 04:49:13;;;;;;;15.47;8.90;;;9.10;99.90;;;12.34;61.63;97504.56;4926482;29;20346;-51
2022/11/05 04:51:41;;;;;;;12.20;7.80;;;9.20;99.90;;;12.33;61.98;97511.75;4926729;29;20048;-52
2022/11/05 04:54:09;;;;;;;13.93;9.13;;;9.20;99.90;;;12.30;61.99;97512.09;4926347;29;20048;-53
2022/11/05 04:56:37;;;;;;;11.30;8.40;;;9.20;99.90;;;12.40;61.48;97506.53;4926527;29;20350;-50
2022/11/05 04:59:05;;;;;;;15.43;9.77;;;9.20;99.90;;;12.44;61.53;97510.50;4926205;29;20254;-51
2022/11/05 05:01:34;;;;;;;12.37;8.60;;;9.20;99.90;;;12.45;61.48;97514.03;4925571;29;20074;-49
2022/11/05 05:04:02;;;;;;;15.13;9.47;;;9.20;99.90;;;12.50;61.40;97511.66;4925864;29;20354;-49
2022/11/05 05:06:30;;;;;;;13.60;8.57;;;9.30;99.90;;;12.47;61.74;97510.16;4926350;29;20051;-53
2022/11/05 05:08:58;;;;;;;13.30;9.40;;;9.30;99.90;;;12.31;61.81;97519.09;4926377;29;20113;-50
2022/11/05 05:11:26;;;;;;;13.20;9.40;;;9.20;99.90;;;12.19;62.48;97523.16;4926252;29;20056;-51
2022/11/05 05:13:55;;;;;;;14.33;10.10;;;9.10;99.90;;;11.96;63.03;97529.28;4925933;29;20048;-52
2022/11/05 05:16:25;;;;;;;16.53;9.97;;;9.10;99.90;;;12.20;62.44;97540.84;4926218;29;20059;-50
2022/11/05 05:18:54;;;;;;;17.10;10.60;;;9.10;99.90;;;12.21;62.38;97538.00;4926193;29;20052;-52
2022/11/05 05:21:37;;;;;;;17.03;10.80;;;9.10;99.90;;;12.27;62.07;97538.31;4925988;29;20048;-52
2022/11/05 05:24:12;;;;;;;15.57;9.48;;;9.10;99.90;;;12.30;62.18;97543.31;4925980;29;20060;-52
2022/11/05 05:26:43;;;;;;;22.07;12.57;;;9.10;99.90;;;12.27;61.95;97548.97;4908782;29;20048;-51
2022/11/05 05:29:12;;;;;;;17.20;10.97;;;9.20;99.90;;;12.18;62.20;97546.34;4907187;29;20355;-50
2022/11/05 05:31:41;;;;;;;18.67;11.53;;;9.10;99.90;;;12.08;62.46;97545.75;4906935;29;20071;-50
2022/11/05 05:34:14;;;;;;;17.63;11.13;;;9.00;99.90;;;12.06;62.46;97549.56;4890286;29;20045;-51
2022/11/05 05:36:42;;;;;;;20.03;10.47;;;9.00;99.90;;;12.15;61.92;97552.03;4907319;29;20053;-51
2022/11/05 05:39:10;;;;;;;21.40;11.47;;;9.00;99.90;;;11.98;62.32;97548.59;4907013;29;20351;-49
2022/11/05 05:41:38;;;;;;;22.27;12.67;;;8.90;99.90;;;11.96;62.63;97550.63;4890358;29;20055;-53
2022/11/05 05:44:06;;;;;;;19.60;11.37;;;8.90;99.90;;;11.86;62.90;97554.44;4906709;29;20052;-53
2022/11/05 05:46:34;;;;;;;19.60;12.47;;;8.90;99.90;;;11.76;62.84;97560.78;4890489;29;20047;-51
2022/11/05 05:49:03;;;;;;;22.73;12.27;;;8.80;99.90;;;11.82;63.19;97559.28;4906917;29;20055;-50
2022/11/05 05:51:39;;;;;;;21.33;12.50;;;8.80;99.90;;;12.00;62.63;97564.44;4906841;29;20044;-51
2022/11/05 05:54:07;;;;;;;22.40;12.77;;;8.90;99.90;;;12.08;62.18;97567.09;4906612;29;20060;-53
2022/11/05 05:56:35;;;;;;;19.73;12.90;;;9.00;99.90;;;11.82;63.10;97576.16;4906504;29;20364;-49
2022/11/05 05:59:05;;;;;;;24.13;14.60;;;8.90;99.90;;;11.80;63.07;97572.78;4906902;29;20228;-51
2022/11/05 06:01:33;;;;;;;21.33;13.47;;;8.90;99.90;;;12.00;62.71;97577.78;4906617;29;20056;-51
2022/11/05 06:04:02;;;;;;;18.53;13.37;;;8.90;99.90;;;12.12;62.43;97587.06;4906458;29;20049;-48
2022/11/05 06:06:30;;;;;;;22.77;12.40;;;9.00;99.90;;;12.28;61.91;97588.03;4906775;29;20346;-51
2022/11/05 06:08:58;;;;;;;21.57;12.67;;;9.10;99.90;;;12.32;61.86;97584.81;4906833;29;20246;-51
2022/11/05 06:11:27;;;;;;;22.27;13.93;;;9.10;99.90;;;12.08;62.02;97587.56;4906701;29;20044;-49
2022/11/05 06:13:55;;;;;;;17.63;12.20;;;9.00;99.90;;;12.10;62.04;97589.09;4906255;29;20056;-48
2022/11/05 06:16:23;;;;;;;22.80;14.20;;;9.00;99.90;;;12.25;62.02;97599.03;4906687;29;20078;-50
2022/11/05 06:18:51;;;;;;;19.20;12.20;;;9.10;99.90;;;12.17;61.94;97597.22;4906808;29;20063;-48
2022/11/05 06:21:19;;;;;;;21.70;12.80;;;9.00;99.90;;;12.25;61.73;97604.38;4906689;29;20057;-50
2022/11/05 06:23:48;;;;;;;21.80;12.73;;;9.10;99.90;;;12.23;61.62;97603.72;4906497;29;20378;-51
2022/11/05 06:26:18;;;;;;;21.13;11.47;;;9.10;99.90;;;12.09;62.05;97603.41;4920314;29;20044;-54
2022/11/05 06:28:46;;;;;;;23.83;13.50;;;9.00;99.90;;;12.09;62.00;97616.75;4924228;29;20062;-51
2022/11/05 06:31:14;;;;;;;22.50;11.97;;;9.00;99.90;;;11.99;62.25;97622.28;4925054;29;20056;-50
2022/11/05 06:33:42;;;;;;;15.77;10.70;;;8.90;99.90;;;12.09;62.19;97624.78;4925212;29;20056;-47
2022/11/05 06:36:15;;;;;;;16.57;10.83;;;9.00;99.90;;;11.88;62.56;97622.63;4928963;29;20048;-52
2022/11/05 06:38:43;;;;;;;24.60;13.00;;;8.90;99.90;;;12.10;61.99;97634.47;4912686;29;20061;-50
2022/11/05 06:41:12;;;;;;;19.47;10.93;;;9.00;99.90;;;12.00;62.25;97636.50;4928779;29;20054;-53
2022/11/05 06:43:40;;;;;;;17.97;11.77;;;8.90;99.90;;;12.02;61.91;97637.16;4928244;29;20368;-49
2022/11/05 06:46:10;;;;;;;17.53;11.13;;;8.90;99.90;;;12.08;61.97;97646.28;4928921;29;20058;-51
2022/11/05 06:48:39;;;;;;;20.37;12.03;;;8.90;99.90;;;11.99;61.94;97642.81;4928872;29;20096;-53
2022/11/05 06:51:08;;;;;;;17.90;10.67;;;8.80;99.90;;;11.82;62.50;97647.31;4912271;29;20052;-54
2022/11/05 06:53:36;;;;;;;23.57;11.93;;;8.80;99.90;;;11.99;61.94;97648.16;4911800;29;20048;-53
2022/11/05 06:56:06;;;;;;;20.17;11.47;;;8.80;99.90;;;11.87;62.66;97654.81;4928672;29;20064;-51
2022/11/05 06:58:35;;;;;;;19.70;12.17;;;8.80;99.90;;;12.00;62.34;97655.16;4912106;29;20070;-54
2022/11/05 07:01:08;;;;;;;20.07;12.00;;;8.90;99.90;;;12.09;62.28;97664.78;4928603;29;20054;-54
2022/11/05 07:03:38;;;;;;;21.65;11.18;;;8.90;99.90;;;12.16;62.19;97667.63;4911635;29;20044;-52
2022/11/05 07:06:07;;;;;;;20.20;10.63;;;8.90;99.90;;;12.25;61.58;97665.75;4911882;29;20241;-49
2022/11/05 07:08:36;;;;;;;20.03;13.03;;;9.00;99.90;;;12.16;61.86;97671.13;4928288;29;20054;-51
2022/11/05 07:11:05;;;;;;;19.33;11.73;;;9.00;99.90;;;12.11;62.23;97675.31;4911675;29;20246;-53
2022/11/05 07:13:33;;;;;;;17.73;10.83;;;9.00;99.90;;;12.02;62.12;97682.50;4928037;29;20058;-54
2022/11/05 07:16:01;;;;;;;23.43;13.67;;;8.90;99.90;;;12.08;62.04;97688.97;4928088;29;20369;-52
2022/11/05 07:18:29;;;;;;;21.40;12.80;;;8.90;99.90;;;12.06;62.09;97701.66;4924505;29;20243;-51
2022/11/05 07:20:59;;;;;;;16.87;12.10;;;8.90;99.90;;;12.10;61.90;97701.16;4927955;29;20056;-51
2022/11/05 07:23:27;;;;;;;18.63;9.63;;;8.90;99.90;;;11.92;61.81;97703.19;4911384;29;20062;-53
2022/11/05 07:25:55;;;;;;;16.93;10.97;;;8.80;99.90;;;11.77;62.42;97703.00;4916591;29;20052;-51
2022/11/05 07:28:23;;;;;;;17.93;11.13;;;8.70;99.90;;;11.71;62.41;97709.00;4909269;29;20049;-53
2022/11/05 07:30:52;;;;;;;17.73;9.50;;;8.70;99.90;;;11.68;62.22;97718.16;4909325;29;20243;-51
2022/11/05 07:33:20;;;;;;;19.13;11.83;;;8.60;99.90;;;11.68;62.25;97717.34;4908077;29;20059;-50
2022/11/05 07:35:49;;;;;;;12.00;8.20;;;8.60;99.90;;;11.65;62.16;97723.84;4908717;29;20059;-52
2022/11/05 07:38:18;;;;;;;13.30;7.97;;;8.60;99.90;;;11.56;62.37;97723.00;4908948;29;20056;-48
2022/11/05 07:40:46;;;;;;;12.00;7.83;;;8.50;99.90;;;11.47;62.37;97731.16;4908776;29;20052;-50
2022/11/05 07:43:14;;;;;;;15.57;8.17;;;8.40;99.90;;;11.35;62.57;97730.63;4909077;29;20071;-50
2022/11/05 07:45:44;;;;;;;11.97;6.50;;;8.30;99.90;;;11.40;62.39;97744.31;4907453;29;20065;-50
2022/11/05 07:48:12;;;;;;;13.50;7.33;;;8.30;99.90;;;11.16;62.55;97748.56;4892736;29;20052;-51
2022/11/05 07:50:40;;;;;;;10.83;6.57;;;8.30;99.90;;;11.02;63.17;97742.03;4892196;29;20049;-52
2022/11/05 07:53:13;;;;;;;9.27;6.70;;;8.10;99.90;;;11.17;62.89;97758.25;4908850;29;20048;-47
2022/11/05 07:55:44;;;;;;;11.13;6.60;;;8.20;99.90;;;11.13;62.96;97751.56;4891966;29;20053;-51
2022/11/05 07:58:13;;;;;;;10.13;6.73;;;8.20;99.90;;;10.95;63.21;97759.69;4892838;29;20067;-50
2022/11/05 08:00:41;;;;;;;9.23;6.60;;;8.10;99.90;;;11.00;62.82;97772.50;4908457;29;20052;-51
2022/11/05 08:03:14;;;;;;;8.90;5.50;;;8.10;99.90;;;10.93;62.68;97771.47;4908444;29;20388;-51
2022/11/05 08:05:46;;;;;;;7.55;5.45;;;8.00;99.90;;;10.82;63.15;97773.44;4908022;29;20055;-54
2022/11/05 08:08:18;;;;;;;8.50;5.40;;;8.00;99.90;;;11.18;62.15;97772.38;4892310;29;20060;-51
2022/11/05 08:10:47;;;;;;;7.77;5.20;;;8.20;99.90;;;11.15;62.49;97772.72;4908296;29;20056;-48
2022/11/05 08:13:17;;;;;;;9.43;5.70;;;8.20;99.90;;;11.31;62.28;97777.28;4908221;29;20044;-53
2022/11/05 08:15:45;;;;;;;8.13;5.03;;;8.20;99.90;;;11.25;62.27;97777.94;4907678;29;20367;-53
2022/11/05 08:18:16;;;;;;;6.77;4.33;;;8.20;99.90;;;11.32;62.26;97778.91;4908170;29;20053;-52
2022/11/05 08:20:45;;;;;;;8.13;5.27;;;8.20;99.90;;;11.38;62.26;97776.47;4908168;29;20055;-52
2022/11/05 08:23:14;;;;;;;7.03;5.17;;;8.20;99.90;;;11.38;62.37;97779.13;4891585;29;20056;-53
2022/11/05 08:25:42;;;;;;;7.60;5.20;;;8.20;99.90;;;11.29;62.02;97782.75;4917369;29;20052;-52
2022/11/05 08:28:12;;;;;;;9.80;5.70;;;8.20;99.90;;;11.35;62.18;97776.78;4926982;29;20048;-52
2022/11/05 08:30:40;;;;;;;8.13;4.63;;;8.20;99.90;;;11.32;62.35;97785.09;4926186;29;20051;-52
2022/11/05 08:33:11;;;;;;;10.53;5.80;;;8.30;99.90;;;11.37;62.45;97779.28;4926103;29;20048;-52
2022/11/05 08:35:40;;;;;;;11.27;7.13;;;8.30;99.90;;;11.20;62.54;97789.06;4926101;29;20059;-52
2022/11/05 08:38:13;;;;;;;9.33;5.13;;;8.20;99.90;;;11.30;62.45;97788.91;4926712;29;20052;-53
2022/11/05 08:40:52;;;;;;;12.77;6.80;;;8.20;99.90;;;11.23;62.92;97784.25;4926686;29;20243;-48
2022/11/05 08:43:20;;;;;;;8.60;6.10;;;8.20;99.90;;;11.39;62.03;97796.78;4911173;29;20044;-50
2022/11/05 08:45:49;;;;;;;10.33;5.77;;;8.30;99.90;;;11.26;62.80;97796.41;4926575;29;20068;-51
2022/11/05 08:48:18;;;;;;;7.57;5.00;;;8.30;99.90;;;11.22;62.63;97797.72;4925037;29;20373;-52
2022/11/05 08:50:48;;;;;;;8.67;5.17;;;8.20;99.90;;;11.15;63.16;97800.22;4926359;29;20048;-50
2022/11/05 08:53:16;;;;;;;11.60;6.13;;;8.20;99.90;;;11.30;63.04;97804.91;4926771;29;20350;-52
2022/11/05 08:55:46;;;;;;;9.30;5.77;;;8.30;99.90;;;11.12;63.10;97813.00;4925906;29;20054;-50
2022/11/05 08:58:15;;;;;;;9.73;6.47;;;8.20;99.90;;;11.28;62.78;97817.56;4917006;29;20050;-52
2022/11/05 09:00:47;;;;;;;10.07;6.43;;;8.30;99.90;;;11.43;62.44;97814.09;4907427;29;20052;-49
2022/11/05 09:03:16;;;;;;;8.93;5.90;;;8.30;99.90;;;11.45;62.34;97818.44;4907541;29;20078;-49
2022/11/05 09:05:45;;;;;;;10.03;6.33;;;8.40;99.90;;;11.61;62.30;97823.81;4890173;29;20071;-53
2022/11/05 09:08:17;;;;;;;12.53;6.70;;;8.50;99.90;;;11.51;62.50;97825.78;4907450;29;20066;-53
2022/11/05 09:10:46;;;;;;;10.23;6.10;;;8.40;99.90;;;11.46;62.49;97828.09;4907078;29;20052;-51
2022/11/05 09:13:15;;;;;;;13.33;7.57;;;8.40;99.90;;;11.53;62.34;97823.81;4907353;29;20055;-53
2022/11/05 09:15:48;;;;;;;12.37;6.80;;;8.40;99.90;;;11.38;62.30;97820.91;4906955;29;20048;-53
2022/11/05 09:18:19;;;;;;;13.20;7.87;;;8.40;99.90;;;11.36;62.96;97828.25;4890303;29;20056;-51
2022/11/05 09:20:47;;;;;;;13.17;8.50;;;8.40;99.90;;;11.37;62.96;97829.94;4907061;29;20279;-52
2022/11/05 09:23:15;;;;;;;15.10;8.37;;;8.40;99.90;;;11.29;63.25;97833.41;4890364;29;20067;-53
2022/11/05 09:25:44;;;;;;;18.17;10.87;;;8.30;99.90;;;11.22;63.35;97835.03;4916532;29;20368;-51
2022/11/05 09:28:19;;;;;;;14.27;9.00;;;8.30;99.90;;;11.45;62.95;97837.13;4909399;29;20052;-51
2022/11/05 09:30:50;;;;;;;16.33;10.00;;;8.40;99.90;;;11.49;62.86;97828.63;4925994;29;20048;-49
2022/11/05 09:33:23;;;;;;;15.03;7.83;;;8.40;99.90;;;11.48;62.26;97832.31;4924771;29;20054;-50
2022/11/05 09:35:52;;;;;;;16.30;10.93;;;8.40;99.90;;;11.63;61.98;97829.81;4925375;29;20055;-52
2022/11/05 09:38:20;;;;;;;15.03;9.13;;;8.50;99.90;;;11.63;62.01;97844.00;4925579;29;20246;-51
2022/11/05 09:41:00;;;;;;;12.80;8.40;;;8.50;99.90;;;11.53;62.20;97842.47;4924999;29;20370;-52
2022/11/05 09:43:44;;;;;;;11.63;8.00;;;8.50;99.90;;;11.58;61.91;97845.50;4925751;29;20247;-52
2022/11/05 09:46:27;;;;;;;13.53;8.20;;;8.50;99.90;;;11.54;62.39;97858.31;4926030;29;20051;-51
2022/11/05 09:49:05;;;;;;;14.87;9.17;;;8.50;99.90;;;11.59;61.86;97849.81;4924433;29;20072;-48
2022/11/05 09:51:35;;;;;;;15.93;8.57;;;8.50;99.90;;;11.57;62.29;97850.00;4924918;29;20252;-51
2022/11/05 09:54:04;;;;;;;13.83;8.83;;;8.50;99.90;;;11.65;61.92;97857.19;4925405;29;20048;-50
2022/11/05 09:56:39;;;;;;;16.97;8.60;;;8.50;99.90;;;11.62;62.30;97860.16;4914567;29;20063;-51
2022/11/05 09:59:28;;;;;;;13.90;8.97;;;8.60;99.90;;;11.76;62.02;97861.34;4898508;29;20053;-52
2022/11/05 10:02:23;;;;;;;17.43;8.60;;;8.70;99.90;;;11.97;61.84;97864.44;4887877;29;20053;-51
2022/11/05 10:04:58;;;;;;;;;;;8.80;99.90;;;11.87;61.76;97861.06;4889942;29;20058;-48
2022/11/05 10:07:46;;;;;;;11.93;7.27;;;8.80;99.90;;;11.87;61.78;97866.38;4904551;29;19930;-48
2022/11/05 10:10:37;;;;;;;15.53;8.87;;;8.80;99.90;;;11.61;62.18;97866.47;4909133;29;20117;-51
2022/11/05 10:13:33;;;;;;;19.53;11.73;;;8.80;99.90;;;11.72;61.89;97871.50;4909604;29;20066;-52
2022/11/05 10:16:16;;;;;;;16.50;8.82;;;8.80;99.90;;;11.88;61.94;97872.56;4910366;29;20044;-50
2022/11/05 10:18:57;;;;;;;12.33;8.20;;;8.90;99.90;;;11.88;61.84;97873.38;4906194;29;20234;-50
2022/11/05 10:21:25;;;;;;;12.30;7.33;;;9.00;99.90;;;12.00;61.92;97871.28;4909393;29;20342;-53
2022/11/05 10:24:18;;;;;;;14.73;7.43;;;9.10;99.90;;;12.19;62.10;97884.31;4910096;29;20052;-50
2022/11/05 10:26:51;;;;;;;10.32;7.13;;;9.20;99.90;;;12.09;62.00;97883.63;4909248;29;20063;-54
2022/11/05 10:29:29;;;;;;;13.67;7.50;;;9.20;99.90;;;12.07;61.78;97898.13;4909370;29;20052;-52
2022/11/05 10:32:02;;;;;;;12.43;7.30;;;9.10;99.90;;;12.05;61.54;97892.97;4909159;29;20051;-54
2022/11/05 10:34:34;;;;;;;10.17;6.50;;;9.10;99.90;;;11.98;61.40;97891.94;4907787;29;20055;-54
2022/11/05 10:37:03;;;;;;;12.67;6.57;;;9.00;99.90;;;11.72;62.14;97895.50;4909077;29;20059;-52
2022/11/05 10:39:33;;;;;;;12.83;7.73;;;8.90;99.90;;;11.85;61.81;97891.56;4915893;29;20350;-52
2022/11/05 10:42:32;;;;;;;17.90;10.17;;;8.90;99.90;;;11.93;61.71;97895.09;4924320;29;20058;-52
2022/11/05 10:45:54;;;;;;;17.03;11.23;;;8.90;99.90;;;11.93;61.43;97910.28;4923706;29;20246;-51
2022/11/05 10:48:47;;;;;;;15.73;10.20;;;9.20;99.90;;;12.27;60.86;97907.50;4902071;29;20278;-54
2022/11/05 10:51:16;;;;;;;16.17;9.03;;;9.20;99.90;;;12.26;61.21;97905.00;4909689;29;20343;-55
2022/11/05 10:53:55;;;;;;;17.83;11.27;;;9.20;99.90;;;12.44;60.96;97903.00;4923750;29;20061;-54
2022/11/05 10:56:37;;;;;;;12.50;9.00;;;9.40;99.90;;;12.16;60.90;97899.81;4923189;29;20050;-54
2022/11/05 10:59:26;;;;;;;16.73;10.23;;;9.20;99.90;;;12.23;60.62;97905.31;4915726;29;20071;-56
2022/11/05 11:02:23;;;;;;;16.23;9.00;;;9.30;99.90;;;12.22;60.59;97901.81;4904576;29;20052;-53
2022/11/05 11:04:52;;;;;;;16.83;9.50;;;9.20;99.90;;;11.98;60.67;97902.59;4902645;29;20055;-56
2022/11/05 11:07:24;;;;;;;14.90;9.03;;;9.10;99.90;;;11.85;61.41;97902.25;4905482;29;20057;-52
2022/11/05 11:09:53;;;;;;;16.63;9.47;;;9.00;99.90;;;12.04;60.82;97909.97;4904869;29;20055;-54
2022/11/05 11:12:26;;;;;;;15.43;7.40;;;9.00;99.90;;;12.10;60.47;97903.97;4890819;29;20045;-57
2022/11/05 11:15:01;;;;;;;13.63;7.80;;;9.10;99.90;;;12.00;60.82;97905.97;4904461;29;20044;-56
2022/11/05 11:17:31;;;;;;;13.10;8.33;;;9.10;99.90;;;12.03;60.65;97902.97;4890920;29;20071;-56
2022/11/05 11:20:31;;;;;;;13.60;8.40;;;9.00;99.90;;;12.13;60.22;97903.63;4889778;29;20045;-57
2022/11/05 11:23:12;;;;;;;10.73;6.93;;;9.10;99.90;;;12.15;60.40;97914.16;4886850;29;20385;-57
2022/11/05 11:25:56;;;;;;;11.60;6.63;;;9.10;99.90;;;12.10;60.56;97903.97;4908859;29;20051;-53